Aviation Digital Data Service (ADDS)

Output produced by METARs form (1051 UTC 19 January 2019)
found at http://www.aviationweather.gov/metar/data/
 
MSLP 190950Z 02007KT 9999 FEW073 24/17 Q1011 A2986 NOSIG
TAF MSLP 190925Z 1912/2012 04010KT CAVOK TX34/1918Z TN24/2010Z 
     FM191800 20010KT 9999 SCT060 
     FM200000 VRB02KT 
     FM200600 05006KT CAVOK
       
MSSS 190550Z 36004KT CAVOK 20/16 Q1017 A3003
TAF MSSS 190925Z 1912/2012 35010KT CAVOK TX31/1920Z TN19/2012Z 
     FM192100 19006KT 9999 SCT033 
     FM200100 35006KT 9999 FEW043 
     FM200600 CAVOK